Time;durP1;ratioP1;P1;durP2;ratioP2;P2;SDS_P1;SDS_P2;PMS_P1;PMS_P2;Temp;Humidity;BMP_temperature;BMP_pressure;BME280_temperature;BME280_humidity;BME280_pressure;Samples;Min_cycle;Max_cycle;Signal;HPM_P1;HPM_P2
2021/06/05 00:01:21;;;;;;;13.20;7.25;;;19.60;99.90;;;;;;5031163;28;20057;-94
2021/06/05 00:03:48;;;;;;;9.88;6.88;;;19.60;99.90;;;;;;5029185;28;20058;-93
2021/06/05 00:06:17;;;;;;;11.85;7.20;;;19.50;99.90;;;;;;5029429;28;20076;-93
2021/06/05 00:08:44;;;;;;;12.88;7.55;;;19.50;99.90;;;;;;5029323;28;20054;-93
2021/06/05 00:11:13;;;;;;;11.10;7.50;;;19.40;99.90;;;;;;5029786;28;20065;-93
2021/06/05 00:13:42;;;;;;;13.80;7.45;;;19.30;99.90;;;;;;5030367;28;20140;-92
2021/06/05 00:16:12;;;;;;;10.95;7.45;;;19.20;99.90;;;;;;5030914;28;20065;-92
2021/06/05 00:18:38;;;;;;;12.48;7.97;;;19.10;99.90;;;;;;5030996;28;20042;-93
2021/06/05 00:21:06;;;;;;;13.48;7.53;;;19.00;99.90;;;;;;5032025;28;20057;-92
2021/06/05 00:23:33;;;;;;;14.35;7.80;;;19.00;99.90;;;;;;5031295;28;20053;-92
2021/06/05 00:26:00;;;;;;;10.75;7.55;;;19.00;99.90;;;;;;5030817;28;20030;-93
2021/06/05 00:28:29;;;;;;;12.75;7.25;;;19.10;99.90;;;;;;5032009;28;20131;-93
2021/06/05 00:30:57;;;;;;;13.15;7.13;;;18.90;99.90;;;;;;5032327;28;20058;-92
2021/06/05 00:33:24;;;;;;;10.23;7.50;;;18.90;99.90;;;;;;5033303;28;20037;-93
2021/06/05 00:35:51;;;;;;;10.45;6.90;;;18.90;99.90;;;;;;5032756;28;20058;-93
2021/06/05 00:38:18;;;;;;;13.20;8.48;;;18.90;99.90;;;;;;5032873;28;20034;-92
2021/06/05 00:40:47;;;;;;;11.00;7.82;;;18.80;99.90;;;;;;5029013;28;20052;-93
2021/06/05 00:43:17;;;;;;;10.75;7.55;;;18.70;99.90;;;;;;5028451;28;20045;-94
2021/06/05 00:45:47;;;;;;;13.43;8.15;;;18.60;99.90;;;;;;5027854;28;20041;-92
2021/06/05 00:48:17;;;;;;;13.30;8.45;;;18.60;99.90;;;;;;5027687;28;20065;-93
2021/06/05 00:50:46;;;;;;;14.43;8.10;;;18.70;99.90;;;;;;5031811;28;20117;-92
2021/06/05 00:53:17;;;;;;;11.55;8.75;;;18.50;99.90;;;;;;5032274;28;20038;-92
2021/06/05 00:55:49;;;;;;;11.02;8.20;;;18.40;99.90;;;;;;5035027;28;20048;-94
2021/06/05 00:58:18;;;;;;;10.73;7.63;;;18.30;99.90;;;;;;5034982;28;20037;-94
2021/06/05 01:00:49;;;;;;;15.80;8.82;;;18.40;99.90;;;;;;5035322;28;20076;-94
2021/06/05 01:03:17;;;;;;;10.30;8.32;;;18.20;99.90;;;;;;5033280;28;20038;-94
2021/06/05 01:05:47;;;;;;;12.70;8.38;;;18.00;99.90;;;;;;5032349;28;20109;-94
2021/06/05 01:08:23;;;;;;;14.32;9.10;;;18.00;99.90;;;;;;5033769;28;20038;-94
2021/06/05 01:10:57;;;;;;;12.18;8.32;;;18.00;99.90;;;;;;5039608;28;20102;-94
2021/06/05 01:13:39;;;;;;;11.82;8.35;;;17.90;99.90;;;;;;5039919;28;20053;-94
2021/06/05 01:16:15;;;;;;;14.52;9.05;;;17.90;99.90;;;;;;5039590;28;20174;-94
2021/06/05 01:18:47;;;;;;;12.80;9.30;;;17.80;99.90;;;;;;5015670;28;20050;-91
2021/06/05 01:21:38;;;;;;;12.32;8.68;;;18.00;99.90;;;;;;4994383;28;20053;-91
2021/06/05 01:24:18;;;;;;;14.57;8.93;;;17.90;99.90;;;;;;4992088;28;20132;-89
2021/06/05 01:26:53;;;;;;;14.27;9.57;;;18.00;99.90;;;;;;4995610;28;20248;-89
2021/06/05 01:29:21;;;;;;;14.52;9.43;;;17.90;99.90;;;;;;4996355;28;20593;-90
2021/06/05 01:31:51;;;;;;;12.73;8.65;;;17.90;99.90;;;;;;4997148;28;20078;-90
2021/06/05 01:34:18;;;;;;;15.02;8.32;;;17.90;99.90;;;;;;4994367;28;20038;-92
2021/06/05 01:36:48;;;;;;;15.63;9.40;;;17.90;99.90;;;;;;4999901;28;20056;-89
2021/06/05 01:39:17;;;;;;;14.30;9.02;;;18.00;99.90;;;;;;4994983;28;20704;-91
2021/06/05 01:41:47;;;;;;;14.27;10.13;;;17.80;99.90;;;;;;4994972;28;20599;-92
2021/06/05 01:44:16;;;;;;;17.13;10.40;;;17.80;99.90;;;;;;4998066;28;20137;-91
2021/06/05 01:46:45;;;;;;;12.32;8.95;;;17.80;99.90;;;;;;4999217;28;20148;-90
2021/06/05 01:49:12;;;;;;;13.75;9.57;;;17.80;99.90;;;;;;4999182;28;20986;-89
2021/06/05 01:51:41;;;;;;;16.50;9.77;;;18.10;99.90;;;;;;5002969;28;20050;-91
2021/06/05 01:54:13;;;;;;;15.50;9.68;;;17.80;99.90;;;;;;5007392;28;20523;-91
2021/06/05 01:56:43;;;;;;;18.63;9.95;;;17.80;99.90;;;;;;5001677;28;20061;-90
2021/06/05 01:59:13;;;;;;;14.13;10.05;;;17.70;99.90;;;;;;4995927;28;20129;-89
2021/06/05 02:01:40;;;;;;;13.35;9.32;;;17.70;99.90;;;;;;4993639;28;20123;-90
2021/06/05 02:04:07;;;;;;;13.55;10.13;;;17.70;99.90;;;;;;4995107;28;20054;-89
2021/06/05 02:06:34;;;;;;;13.35;10.02;;;17.80;99.90;;;;;;4994329;28;20115;-91
2021/06/05 02:09:02;;;;;;;12.20;9.30;;;17.60;99.90;;;;;;4987473;28;20065;-90
2021/06/05 02:11:30;;;;;;;16.40;9.18;;;17.80;99.90;;;;;;4990684;28;20473;-90
2021/06/05 02:14:02;;;;;;;14.30;9.38;;;17.70;99.90;;;;;;4992321;28;20056;-90
2021/06/05 02:16:35;;;;;;;18.38;10.02;;;17.70;99.90;;;;;;4997472;28;20079;-91
2021/06/05 02:19:08;;;;;;;12.95;9.50;;;17.80;99.90;;;;;;5002755;28;20050;-90
2021/06/05 02:21:36;;;;;;;13.95;10.15;;;17.80;99.90;;;;;;5002964;28;20391;-90
2021/06/05 02:24:07;;;;;;;13.88;9.13;;;17.70;99.90;;;;;;5001630;28;20509;-91
2021/06/05 02:26:35;;;;;;;14.15;10.10;;;17.50;99.90;;;;;;4997417;28;20153;-91
2021/06/05 02:29:06;;;;;;;14.35;10.02;;;17.50;99.90;;;;;;4995584;28;20050;-89
2021/06/05 02:31:34;;;;;;;15.07;9.82;;;17.60;99.90;;;;;;4997784;28;20052;-90
2021/06/05 02:34:03;;;;;;;13.93;9.45;;;17.60;99.90;;;;;;4993310;28;20113;-91
2021/06/05 02:36:29;;;;;;;13.77;9.45;;;17.50;99.90;;;;;;4997270;28;20081;-90
2021/06/05 02:38:56;;;;;;;13.38;9.60;;;17.50;99.90;;;;;;4999349;28;20130;-89
2021/06/05 02:41:24;;;;;;;12.93;9.80;;;17.50;99.90;;;;;;4996891;28;20054;-89
2021/06/05 02:43:52;;;;;;;13.43;9.23;;;17.50;99.90;;;;;;4997369;28;20395;-91
2021/06/05 02:46:23;;;;;;;15.32;9.18;;;17.50;99.90;;;;;;4994611;28;20057;-90
2021/06/05 02:48:55;;;;;;;12.88;9.82;;;17.70;99.90;;;;;;4992601;28;20050;-91
2021/06/05 02:51:27;;;;;;;15.95;9.75;;;17.50;99.90;;;;;;4992365;28;20145;-90
2021/06/05 02:53:53;;;;;;;14.85;10.25;;;17.60;99.90;;;;;;4995925;28;20123;-90
2021/06/05 02:56:20;;;;;;;14.73;9.45;;;17.80;99.90;;;;;;4996271;28;20518;-89
2021/06/05 02:58:46;;;;;;;11.70;9.27;;;17.60;99.90;;;;;;4993377;28;20547;-90
2021/06/05 03:01:14;;;;;;;13.88;9.88;;;17.80;99.90;;;;;;4990516;28;20054;-90
2021/06/05 03:03:40;;;;;;;13.07;9.38;;;17.70;99.90;;;;;;4990223;28;20054;-90
2021/06/05 03:06:09;;;;;;;13.23;9.45;;;17.70;99.90;;;;;;4989563;28;20091;-91
2021/06/05 03:08:40;;;;;;;14.57;9.55;;;17.50;99.90;;;;;;4993189;28;20069;-90
2021/06/05 03:11:09;;;;;;;13.50;8.73;;;17.50;99.90;;;;;;4990128;28;20586;-91
2021/06/05 03:13:37;;;;;;;12.75;9.30;;;17.80;99.90;;;;;;4991722;28;20053;-91
2021/06/05 03:16:05;;;;;;;12.75;8.77;;;17.70;99.90;;;;;;4991098;28;20443;-90
2021/06/05 03:18:32;;;;;;;13.80;10.98;;;17.60;99.90;;;;;;4988757;28;20137;-91
2021/06/05 03:20:59;;;;;;;15.77;10.82;;;17.60;99.90;;;;;;4990967;28;20061;-91
2021/06/05 03:23:30;;;;;;;14.68;10.02;;;17.40;99.90;;;;;;4990694;28;20065;-90
2021/06/05 03:25:57;;;;;;;16.15;10.40;;;17.40;99.90;;;;;;4989795;28;20056;-90
2021/06/05 03:28:26;;;;;;;15.88;10.63;;;17.50;99.90;;;;;;4990701;28;20057;-90
2021/06/05 03:30:52;;;;;;;12.82;9.40;;;17.50;99.90;;;;;;4990597;28;20495;-89
2021/06/05 03:33:19;;;;;;;13.88;10.25;;;17.50;99.90;;;;;;4989773;28;20494;-90
2021/06/05 03:35:46;;;;;;;15.38;10.30;;;17.40;99.90;;;;;;4990129;28;20041;-91
2021/06/05 03:38:12;;;;;;;14.05;9.95;;;17.40;99.90;;;;;;4992428;28;20060;-88
2021/06/05 03:40:40;;;;;;;16.95;10.70;;;17.40;99.90;;;;;;4995282;28;20104;-90
2021/06/05 03:43:08;;;;;;;13.70;9.77;;;17.50;99.90;;;;;;4999215;28;20516;-89
2021/06/05 03:45:35;;;;;;;14.75;9.55;;;17.50;99.90;;;;;;4997818;28;20056;-91
2021/06/05 03:48:02;;;;;;;15.30;9.45;;;17.60;99.90;;;;;;4996012;28;20045;-89
2021/06/05 03:50:31;;;;;;;14.85;10.23;;;17.60;99.90;;;;;;4994041;28;20069;-90
2021/06/05 03:52:58;;;;;;;12.48;9.88;;;17.60;99.90;;;;;;4995388;28;20045;-91
2021/06/05 03:55:25;;;;;;;13.27;9.93;;;17.50;99.90;;;;;;4996483;28;21065;-89
2021/06/05 03:57:55;;;;;;;14.85;10.65;;;17.50;99.90;;;;;;4994873;28;20764;-90
2021/06/05 04:00:25;;;;;;;10.57;8.70;;;17.50;99.90;;;;;;4992460;28;20053;-90
2021/06/05 04:02:51;;;;;;;15.00;9.82;;;17.50;99.90;;;;;;4994219;28;20141;-91
2021/06/05 04:05:19;;;;;;;12.30;10.13;;;17.60;99.90;;;;;;4992887;28;20046;-90
2021/06/05 04:07:45;;;;;;;13.95;10.75;;;17.50;99.90;;;;;;4992064;28;20687;-91
2021/06/05 04:10:12;;;;;;;;;;;17.60;99.90;;;;;;4991944;28;20057;-89
2021/06/05 04:12:40;;;;;;;14.63;9.80;;;17.70;99.90;;;;;;4989396;28;20238;-89
2021/06/05 04:15:10;;;;;;;13.45;10.02;;;17.90;99.90;;;;;;4992073;28;20042;-92
2021/06/05 04:17:37;;;;;;;16.27;11.25;;;17.70;99.90;;;;;;4992884;28;20053;-89
2021/06/05 04:20:04;;;;;;;14.48;10.15;;;17.70;99.90;;;;;;4993131;28;20049;-88
2021/06/05 04:22:31;;;;;;;12.57;9.80;;;17.80;99.90;;;;;;4994255;28;20136;-90
2021/06/05 04:24:57;;;;;;;16.25;11.02;;;17.90;99.90;;;;;;4993804;28;20056;-89
2021/06/05 04:27:24;;;;;;;12.90;10.18;;;17.90;99.90;;;;;;4992546;28;20057;-90
2021/06/05 04:29:50;;;;;;;15.20;9.65;;;17.90;99.90;;;;;;4993543;28;20132;-90
2021/06/05 04:32:18;;;;;;;14.57;10.13;;;18.00;99.90;;;;;;4993110;28;20310;-88
2021/06/05 04:34:44;;;;;;;14.30;10.65;;;18.30;99.90;;;;;;4994497;28;20401;-90
2021/06/05 04:37:11;;;;;;;13.75;10.05;;;18.20;99.90;;;;;;4998329;28;20069;-91
2021/06/05 04:39:40;;;;;;;16.25;9.88;;;18.20;99.90;;;;;;5003371;28;20089;-89
2021/06/05 04:42:08;;;;;;;14.05;10.05;;;18.30;99.90;;;;;;5007983;28;20084;-90
2021/06/05 04:44:34;;;;;;;14.90;10.88;;;18.30;99.90;;;;;;5005342;28;20136;-90
2021/06/05 04:47:01;;;;;;;13.13;9.95;;;18.30;99.90;;;;;;5000537;28;20539;-90
2021/06/05 04:49:29;;;;;;;13.30;9.70;;;18.40;99.90;;;;;;4998635;28;20046;-89
2021/06/05 04:51:55;;;;;;;15.20;10.35;;;18.50;99.90;;;;;;4997577;28;20547;-90
2021/06/05 04:54:21;;;;;;;12.82;9.85;;;18.40;99.90;;;;;;4995925;28;21128;-90
2021/06/05 04:56:50;;;;;;;15.05;10.57;;;18.50;99.90;;;;;;5001548;28;20487;-90
2021/06/05 04:59:18;;;;;;;13.35;10.48;;;18.50;99.90;;;;;;5013296;28;20046;-89
2021/06/05 05:01:45;;;;;;;15.05;10.60;;;18.40;99.90;;;;;;5025254;28;20030;-87
2021/06/05 05:04:11;;;;;;;17.88;11.00;;;18.20;99.90;;;;;;5032264;28;20041;-87
2021/06/05 05:06:39;;;;;;;16.83;10.27;;;18.10;99.90;;;;;;5026456;28;20114;-92
2021/06/05 05:09:08;;;;;;;15.00;9.95;;;18.20;99.90;;;;;;5016412;28;20042;-89
2021/06/05 05:11:35;;;;;;;16.73;10.75;;;18.30;99.90;;;;;;5017257;28;20359;-90
2021/06/05 05:14:01;;;;;;;12.63;9.48;;;18.30;99.90;;;;;;5024580;28;20030;-90
2021/06/05 05:16:28;;;;;;;14.18;9.45;;;18.30;99.90;;;;;;5024263;28;20057;-90
2021/06/05 05:18:55;;;;;;;12.40;8.68;;;18.40;99.90;;;;;;5019740;28;20049;-89
2021/06/05 05:21:22;;;;;;;13.00;8.98;;;18.50;99.90;;;;;;5009069;28;20514;-89
2021/06/05 05:23:50;;;;;;;11.52;8.73;;;18.60;99.90;;;;;;5004043;28;20054;-91
2021/06/05 05:26:18;;;;;;;14.63;8.93;;;18.70;99.90;;;;;;4996690;28;20534;-94
2021/06/05 05:28:45;;;;;;;13.52;8.75;;;18.70;99.90;;;;;;4990694;28;20068;-90
2021/06/05 05:31:16;;;;;;;12.57;8.63;;;18.80;99.90;;;;;;4992699;28;20566;-93
2021/06/05 05:33:43;;;;;;;12.45;8.50;;;18.90;99.90;;;;;;4982594;28;20088;-91
2021/06/05 05:36:13;;;;;;;16.13;10.52;;;19.10;99.90;;;;;;4980549;28;20054;-92
2021/06/05 05:38:40;;;;;;;15.60;10.23;;;19.20;99.90;;;;;;4979661;28;20062;-91
2021/06/05 05:41:11;;;;;;;18.33;10.60;;;19.10;99.90;;;;;;4980061;28;20064;-90
2021/06/05 05:43:37;;;;;;;13.85;9.95;;;19.20;99.90;;;;;;4978866;28;20062;-90
2021/06/05 05:46:05;;;;;;;12.63;9.48;;;19.40;99.90;;;;;;4978357;28;20555;-88
2021/06/05 05:48:31;;;;;;;14.88;10.25;;;19.50;99.90;;;;;;4976939;28;20068;-90
2021/06/05 05:50:58;;;;;;;12.00;9.65;;;19.50;99.90;;;;;;4972872;28;20056;-89
2021/06/05 05:53:25;;;;;;;13.25;9.40;;;19.70;99.90;;;;;;4974676;28;20058;-90
2021/06/05 05:55:51;;;;;;;16.67;9.63;;;19.90;99.90;;;;;;4979179;28;20060;-90
2021/06/05 05:58:23;;;;;;;16.35;10.15;;;19.90;99.90;;;;;;4979816;28;20487;-88
2021/06/05 06:00:51;;;;;;;12.50;9.30;;;19.90;99.90;;;;;;4979746;28;20548;-89
2021/06/05 06:03:20;;;;;;;14.02;9.15;;;20.00;99.90;;;;;;4978310;28;20045;-89
2021/06/05 06:05:47;;;;;;;13.90;9.50;;;20.10;99.90;;;;;;4977956;28;20293;-90
2021/06/05 06:08:16;;;;;;;14.45;8.73;;;20.20;99.90;;;;;;4978925;28;20053;-89
2021/06/05 06:10:43;;;;;;;12.18;8.77;;;20.40;99.90;;;;;;4978752;28;20061;-90
2021/06/05 06:13:10;;;;;;;15.32;9.57;;;20.30;99.90;;;;;;4979386;28;20072;-89
2021/06/05 06:15:39;;;;;;;14.00;8.85;;;20.60;99.90;;;;;;4977690;28;20795;-88
2021/06/05 06:18:06;;;;;;;16.35;9.77;;;20.60;99.90;;;;;;4978072;28;20056;-89
2021/06/05 06:20:35;;;;;;;13.70;8.65;;;20.80;99.90;;;;;;4976867;28;20050;-89
2021/06/05 06:23:02;;;;;;;13.48;8.73;;;21.10;99.90;;;;;;4977011;28;20064;-89
2021/06/05 06:25:31;;;;;;;15.85;9.90;;;21.40;99.90;;;;;;4978830;28;20077;-88
2021/06/05 06:27:59;;;;;;;15.00;10.35;;;21.50;99.90;;;;;;4978826;28;20073;-89
2021/06/05 06:30:29;;;;;;;12.95;9.27;;;21.50;99.90;;;;;;4975974;28;20058;-88
2021/06/05 06:32:57;;;;;;;15.07;9.07;;;21.50;99.90;;;;;;4976020;28;20050;-88
2021/06/05 06:35:25;;;;;;;17.52;9.20;;;21.70;99.90;;;;;;4975637;28;20088;-89
2021/06/05 06:37:52;;;;;;;12.52;8.75;;;21.80;99.90;;;;;;4975620;28;20060;-89
2021/06/05 06:40:21;;;;;;;15.45;9.32;;;21.90;99.90;;;;;;4975098;28;20060;-89
2021/06/05 06:42:48;;;;;;;15.65;10.85;;;22.10;99.90;;;;;;4977121;28;20053;-89
2021/06/05 06:45:15;;;;;;;16.80;11.77;;;22.10;99.90;;;;;;4977583;28;20057;-89
2021/06/05 06:47:42;;;;;;;12.63;9.65;;;22.10;99.90;;;;;;4976495;28;20062;-88
2021/06/05 06:50:13;;;;;;;13.95;10.40;;;22.10;99.90;;;;;;4975903;28;20050;-88
2021/06/05 06:52:39;;;;;;;11.13;8.65;;;22.30;99.90;;;;;;4975294;28;20450;-88
2021/06/05 06:55:07;;;;;;;18.33;10.23;;;22.50;99.90;;;;;;4977056;28;20056;-89
2021/06/05 06:57:34;;;;;;;15.00;9.82;;;22.60;99.90;;;;;;4977361;28;20085;-89
2021/06/05 07:00:00;;;;;;;11.55;9.00;;;22.70;99.90;;;;;;4978469;28;20305;-89
2021/06/05 07:02:26;;;;;;;12.23;9.20;;;22.80;99.90;;;;;;4977793;28;20054;-88
2021/06/05 07:04:54;;;;;;;16.40;11.10;;;22.80;99.90;;;;;;4976475;28;20497;-88
2021/06/05 07:07:22;;;;;;;10.63;8.38;;;22.60;99.90;;;;;;4976863;28;20046;-88
2021/06/05 07:09:48;;;;;;;12.13;8.57;;;22.70;99.90;;;;;;4975872;28;20056;-89
2021/06/05 07:12:15;;;;;;;12.88;10.25;;;22.80;99.90;;;;;;4976287;28;20932;-89
2021/06/05 07:14:42;;;;;;;12.75;8.68;;;22.80;99.90;;;;;;4975722;28;20374;-88
2021/06/05 07:17:08;;;;;;;12.55;8.65;;;22.80;99.90;;;;;;4974890;28;20579;-88
2021/06/05 07:19:35;;;;;;;13.70;8.68;;;23.10;99.90;;;;;;4976925;28;20069;-88
2021/06/05 07:22:02;;;;;;;13.25;9.23;;;23.20;99.90;;;;;;4980576;28;20046;-88
2021/06/05 07:24:30;;;;;;;10.85;8.00;;;23.40;99.90;;;;;;4980426;28;20136;-89
2021/06/05 07:26:57;;;;;;;12.73;7.82;;;23.50;99.90;;;;;;4980702;28;20076;-88
2021/06/05 07:29:24;;;;;;;12.02;8.63;;;23.40;99.90;;;;;;4981289;28;20071;-89
2021/06/05 07:31:52;;;;;;;11.52;8.48;;;23.40;99.90;;;;;;4977562;28;20437;-88
2021/06/05 07:34:22;;;;;;;11.90;8.15;;;23.50;99.90;;;;;;4981079;28;20628;-89
2021/06/05 07:36:50;;;;;;;11.43;8.52;;;23.50;99.90;;;;;;4978050;28;20081;-89
2021/06/05 07:39:20;;;;;;;17.00;10.02;;;23.50;99.90;;;;;;4977812;28;20064;-89
2021/06/05 07:41:48;;;;;;;11.98;7.75;;;23.30;99.90;;;;;;4977491;28;20057;-88
2021/06/05 07:44:16;;;;;;;10.32;7.45;;;23.50;99.90;;;;;;4979685;28;20487;-89
2021/06/05 07:46:46;;;;;;;11.95;7.18;;;23.70;99.90;;;;;;4979608;28;20050;-88
2021/06/05 07:49:13;;;;;;;13.10;7.47;;;24.20;99.90;;;;;;4976960;28;20050;-88
2021/06/05 07:51:39;;;;;;;10.88;7.75;;;24.40;99.90;;;;;;4978020;28;20057;-88
2021/06/05 07:54:06;;;;;;;11.77;6.97;;;24.70;99.90;;;;;;4980155;28;20494;-89
2021/06/05 07:56:33;;;;;;;9.50;6.15;;;24.90;99.90;;;;;;4976586;28;20119;-88
2021/06/05 07:59:01;;;;;;;9.70;6.40;;;25.20;99.90;;;;;;4976742;28;20121;-88
2021/06/05 08:01:27;;;;;;;11.40;6.00;;;25.30;99.90;;;;;;4976047;28;20120;-88
2021/06/05 08:03:54;;;;;;;6.57;4.55;;;25.00;99.90;;;;;;4977881;28;20050;-89
2021/06/05 08:06:21;;;;;;;7.50;4.35;;;25.00;99.90;;;;;;4977274;28;20050;-89
2021/06/05 08:08:49;;;;;;;6.97;3.83;;;25.30;99.90;;;;;;4975292;28;20096;-88
2021/06/05 08:11:16;;;;;;;6.30;3.83;;;25.30;99.90;;;;;;4974963;28;20053;-88
2021/06/05 08:13:42;;;;;;;6.03;3.33;;;25.20;99.90;;;;;;4973520;28;20062;-89
2021/06/05 08:16:10;;;;;;;5.93;3.28;;;25.30;99.90;;;;;;4976240;28;20046;-89
2021/06/05 08:18:37;;;;;;;7.72;3.28;;;25.40;99.90;;;;;;4974789;28;20165;-88
2021/06/05 08:21:06;;;;;;;5.43;3.05;;;25.80;99.90;;;;;;4973011;28;20056;-88
2021/06/05 08:23:34;;;;;;;6.88;3.58;;;25.90;99.90;;;;;;4975611;28;20049;-88
2021/06/05 08:26:03;;;;;;;6.95;3.08;;;26.00;99.90;;;;;;4973942;28;20462;-87
2021/06/05 08:28:29;;;;;;;7.13;3.35;;;26.30;99.90;;;;;;4975306;28;20813;-87
2021/06/05 08:31:04;;;;;;;7.18;2.45;;;26.40;99.90;;;;;;4971460;28;20048;-88
2021/06/05 08:33:32;;;;;;;4.78;2.83;;;26.80;99.90;;;;;;4973884;28;20115;-88
2021/06/05 08:35:59;;;;;;;5.10;2.72;;;26.60;99.90;;;;;;4973950;28;20356;-88
2021/06/05 08:38:29;;;;;;;5.00;2.80;;;26.40;99.90;;;;;;4971586;28;20049;-88
2021/06/05 08:41:00;;;;;;;6.05;3.30;;;26.10;99.90;;;;;;4978765;28;20052;-88
2021/06/05 08:43:31;;;;;;;6.10;3.25;;;26.00;99.90;;;;;;4976656;28;20467;-87
2021/06/05 08:45:59;;;;;;;5.03;2.70;;;26.00;99.90;;;;;;4979853;28;20329;-87
2021/06/05 08:48:27;;;;;;;5.25;2.92;;;26.00;99.90;;;;;;4975459;28;20104;-88
2021/06/05 08:51:03;;;;;;;6.78;3.05;;;26.00;99.90;;;;;;4972859;28;20239;-88
2021/06/05 08:53:31;;;;;;;7.13;3.13;;;25.80;99.90;;;;;;4973739;28;20473;-87
2021/06/05 08:56:00;;;;;;;6.78;3.17;;;25.60;99.90;;;;;;4974947;28;20056;-88
2021/06/05 08:58:31;;;;;;;8.10;2.95;;;25.60;99.90;;;;;;4975232;28;20261;-88
2021/06/05 09:01:00;;;;;;;5.05;2.60;;;25.50;99.90;;;;;;4974510;28;20130;-87
2021/06/05 09:03:29;;;;;;;5.75;3.30;;;25.40;99.90;;;;;;4971811;28;20065;-87
2021/06/05 09:06:00;;;;;;;4.72;2.90;;;25.40;99.90;;;;;;4973834;28;20065;-88
2021/06/05 09:08:28;;;;;;;6.70;3.00;;;25.20;99.90;;;;;;4973527;28;20651;-88
2021/06/05 09:10:56;;;;;;;7.57;3.00;;;25.40;99.90;;;;;;4974353;28;20392;-88
2021/06/05 09:13:22;;;;;;;5.03;2.75;;;25.50;99.90;;;;;;4973011;28;20057;-88
2021/06/05 09:15:49;;;;;;;5.43;2.80;;;25.70;99.90;;;;;;4973683;28;20052;-88
2021/06/05 09:18:16;;;;;;;6.97;2.58;;;25.80;99.90;;;;;;4975279;28;20048;-88
2021/06/05 09:20:44;;;;;;;4.68;2.55;;;26.00;99.90;;;;;;4973123;28;20069;-88
2021/06/05 09:23:31;;;;;;;6.78;2.58;;;25.90;99.90;;;;;;4974333;28;20076;-89
2021/06/05 09:26:16;;;;;;;4.82;2.35;;;25.90;99.90;;;;;;4973771;28;20141;-88
2021/06/05 09:28:42;;;;;;;3.40;2.25;;;26.20;99.90;;;;;;4973639;28;20286;-87
2021/06/05 09:31:16;;;;;;;4.57;2.28;;;26.90;99.90;;;;;;4976094;28;20485;-86
2021/06/05 09:33:42;;;;;;;4.60;2.83;;;27.30;99.90;;;;;;4977504;28;20058;-87
2021/06/05 09:36:19;;;;;;;5.43;2.70;;;27.70;99.90;;;;;;4977377;28;20420;-88
2021/06/05 09:38:51;;;;;;;6.28;2.90;;;27.70;99.90;;;;;;4977435;28;20117;-88
2021/06/05 09:41:22;;;;;;;4.43;2.47;;;28.30;99.90;;;;;;4978166;28;20057;-88
2021/06/05 09:43:50;;;;;;;10.27;2.97;;;28.80;99.90;;;;;;4976957;28;20054;-87
2021/06/05 09:46:24;;;;;;;6.32;2.53;;;29.30;99.90;;;;;;4977141;28;20049;-87
2021/06/05 09:48:53;;;;;;;4.00;2.05;;;29.20;99.90;;;;;;4978262;28;20065;-88
2021/06/05 09:51:30;;;;;;;5.88;2.22;;;29.70;99.90;;;;;;4976517;28;20065;-88
2021/06/05 09:54:02;;;;;;;5.32;2.22;;;29.50;99.90;;;;;;4976729;28;20145;-87
2021/06/05 09:56:30;;;;;;;4.65;2.58;;;29.80;99.90;;;;;;4976201;28;20058;-88
2021/06/05 09:59:03;;;;;;;6.18;2.65;;;29.90;99.90;;;;;;4975193;28;20611;-88
2021/06/05 10:01:31;;;;;;;5.22;2.72;;;29.50;99.90;;;;;;4977408;28;20246;-87
2021/06/05 10:04:10;;;;;;;7.45;3.55;;;29.40;99.90;;;;;;4979558;28;20117;-87
2021/06/05 10:06:39;;;;;;;6.00;2.80;;;29.70;99.90;;;;;;4977568;28;20064;-88
2021/06/05 10:09:27;;;;;;;9.90;3.35;;;30.20;99.90;;;;;;4977278;28;20061;-88
2021/06/05 10:11:57;;;;;;;10.80;3.42;;;30.90;99.90;;;;;;4976309;28;20343;-88
2021/06/05 10:14:47;;;;;;;6.55;3.13;;;30.40;99.90;;;;;;4979038;28;20125;-88
2021/06/05 10:17:21;;;;;;;7.47;3.30;;;29.90;99.90;;;;;;4976914;28;20100;-87
2021/06/05 10:19:52;;;;;;;7.10;3.03;;;31.00;99.90;;;;;;4978162;28;20114;-88
2021/06/05 10:22:19;;;;;;;4.65;2.90;;;31.60;99.90;;;;;;4978153;28;20145;-87
2021/06/05 10:24:54;;;;;;;6.07;3.08;;;32.20;99.90;;;;;;4978719;28;20046;-86
2021/06/05 10:27:25;;;;;;;5.35;3.13;;;32.90;99.90;;;;;;4978181;28;20050;-89
2021/06/05 10:29:55;;;;;;;5.68;3.17;;;32.90;99.90;;;;;;4986384;28;20125;-90
2021/06/05 10:32:25;;;;;;;6.43;3.70;;;33.10;99.90;;;;;;5008225;28;20435;-90
2021/06/05 10:34:57;;;;;;;8.65;3.40;;;33.40;99.90;;;;;;4999290;28;20053;-88
2021/06/05 10:37:27;;;;;;;5.40;3.17;;;33.10;99.90;;;;;;4978485;28;20453;-88
2021/06/05 10:39:56;;;;;;;5.88;3.22;;;33.90;99.90;;;;;;4975587;28;20135;-88
2021/06/05 10:42:25;;;;;;;7.43;3.45;;;34.20;99.90;;;;;;4977831;28;20058;-88
2021/06/05 10:44:53;;;;;;;4.75;3.10;;;34.70;99.90;;;;;;4978053;28;20703;-87
2021/06/05 10:47:24;;;;;;;4.70;3.45;;;34.20;99.90;;;;;;4978185;28;20054;-87
2021/06/05 10:49:55;;;;;;;8.93;3.42;;;33.30;99.90;;;;;;4971520;28;20054;-87
2021/06/05 10:52:29;;;;;;;6.00;3.55;;;32.50;99.90;;;;;;4969666;28;20049;-88
2021/06/05 10:55:00;;;;;;;7.18;3.15;;;31.70;99.90;;;;;;4971647;28;20133;-87
2021/06/05 10:57:32;;;;;;;7.97;3.58;;;31.50;99.90;;;;;;4969429;28;20077;-88
2021/06/05 11:00:00;;;;;;;11.82;3.40;;;31.10;99.90;;;;;;4969174;28;20569;-88
2021/06/05 11:02:36;;;;;;;6.45;3.53;;;30.70;99.90;;;;;;4968395;28;20061;-88
2021/06/05 11:05:29;;;;;;;6.70;3.35;;;30.40;99.90;;;;;;4972232;28;20057;-88
2021/06/05 11:08:33;;;;;;;10.07;3.15;;;30.20;99.90;;;;;;4967834;28;20068;-87
2021/06/05 11:11:29;;;;;;;7.28;3.10;;;29.30;99.90;;;;;;4969184;28;20483;-87
2021/06/05 11:13:55;;;;;;;5.93;3.33;;;29.30;99.90;;;;;;4969146;28;20062;-88
2021/06/05 11:16:45;;;;;;;5.07;2.70;;;28.90;99.90;;;;;;4969131;28;20073;-88
2021/06/05 11:19:32;;;;;;;6.38;2.90;;;29.10;99.90;;;;;;4969080;28;20494;-87
2021/06/05 11:22:01;;;;;;;7.60;2.83;;;28.90;99.90;;;;;;4966607;28;20053;-87
2021/06/05 11:24:27;;;;;;;6.32;2.70;;;28.40;99.90;;;;;;4971549;28;20054;-88
2021/06/05 11:26:57;;;;;;;7.38;2.83;;;28.40;99.90;;;;;;4971933;28;20046;-88
2021/06/05 11:30:00;;;;;;;8.88;2.75;;;28.40;99.90;;;;;;4973085;28;20091;-87
2021/06/05 11:32:50;;;;;;;28.95;4.03;;;28.50;99.90;;;;;;4970281;28;20068;-88
2021/06/05 11:35:43;;;;;;;5.30;2.95;;;28.50;99.90;;;;;;4969841;28;20085;-88
2021/06/05 11:38:13;;;;;;;7.25;2.47;;;28.40;99.90;;;;;;4967347;28;20053;-87
2021/06/05 11:40:58;;;;;;;6.10;2.67;;;28.40;99.90;;;;;;4967588;28;20855;-87
2021/06/05 11:43:51;;;;;;;4.68;2.30;;;29.40;99.90;;;;;;4967462;28;20128;-87
2021/06/05 11:46:49;;;;;;;5.82;2.72;;;29.40;99.90;;;;;;4953207;28;20050;-88
2021/06/05 11:50:04;;;;;;;7.35;2.85;;;30.70;99.90;;;;;;4975713;28;20417;-88
2021/06/05 11:52:41;;;;;;;9.05;3.30;;;31.40;99.90;;;;;;4975527;28;20254;-88
2021/06/05 11:55:40;;;;;;;5.70;2.60;;;31.90;99.90;;;;;;4974912;28;20041;-87
2021/06/05 11:58:25;;;;;;;9.00;3.03;;;32.50;99.90;;;;;;4976629;28;20459;-88
2021/06/05 12:01:06;;;;;;;6.78;2.92;;;32.60;99.90;;;;;;4975256;28;20494;-87
2021/06/05 12:03:40;;;;;;;5.72;2.88;;;31.80;99.90;;;;;;4974210;28;20514;-87
2021/06/05 12:06:11;;;;;;;7.05;2.75;;;31.10;99.90;;;;;;4970934;28;20050;-87
2021/06/05 12:08:37;;;;;;;9.98;2.80;;;30.60;99.90;;;;;;4967533;28;20351;-88
2021/06/05 12:11:18;;;;;;;7.43;2.75;;;30.10;99.90;;;;;;4967580;28;20045;-88
2021/06/05 12:13:45;;;;;;;6.72;2.88;;;30.00;99.90;;;;;;4967467;28;20068;-87
2021/06/05 12:16:17;;;;;;;6.90;2.75;;;30.00;99.90;;;;;;4968952;28;20081;-88
2021/06/05 12:18:46;;;;;;;6.40;2.60;;;30.30;99.90;;;;;;4968244;28;20058;-87
2021/06/05 12:21:28;;;;;;;5.95;2.67;;;30.40;99.90;;;;;;4968659;28;20057;-87
2021/06/05 12:23:55;;;;;;;5.07;2.63;;;29.60;99.90;;;;;;4971631;28;20800;-88
2021/06/05 12:26:24;;;;;;;4.88;2.90;;;29.30;99.90;;;;;;4970822;28;20045;-88
2021/06/05 12:28:52;;;;;;;10.20;3.00;;;28.90;99.90;;;;;;4976454;28;20416;-88
2021/06/05 12:31:29;;;;;;;5.32;2.60;;;28.70;99.90;;;;;;4974614;28;20164;-88
2021/06/05 12:33:56;;;;;;;;;;;28.80;99.90;;;;;;4978770;28;20730;-87
2021/06/05 12:36:26;;;;;;;4.75;2.55;;;28.00;99.90;;;;;;4976214;28;20456;-88
2021/06/05 12:38:56;;;;;;;5.80;2.60;;;27.80;99.90;;;;;;4974803;28;20353;-88
2021/06/05 12:41:25;;;;;;;6.10;2.60;;;28.00;99.90;;;;;;4978011;28;20044;-88
2021/06/05 12:43:53;;;;;;;5.72;2.58;;;28.10;99.90;;;;;;4977596;28;20141;-88
2021/06/05 12:46:25;;;;;;;5.50;2.38;;;28.20;99.90;;;;;;4977076;28;20056;-88
2021/06/05 12:48:54;;;;;;;6.70;2.78;;;28.30;99.90;;;;;;4975099;28;20054;-88
2021/06/05 12:51:32;;;;;;;3.85;2.13;;;28.10;99.90;;;;;;4971362;28;20137;-87
2021/06/05 12:54:02;;;;;;;7.50;2.55;;;27.90;99.90;;;;;;4974935;28;20716;-89